183 км

Карта отелей и гостиниц, располагающихся рядом с аэропортом 183 км :

183 км Ханты-Мансийский автономный округ - Югра 61° 1' 55.9812" N, 69° 16' 5.2212" E
183 км Ханты-Мансийский автономный округ - Югра 61° 1' 55.9812" N, 69° 16' 5.2212" E
Код аэродрома ИКАО
HD7D
Код аэродрома RU
ХД7Д
Координаты
N61.03222° E069.26812°
Превышение над уровнем моря
29
Основная полоса
11/29
Курс магнитный
111,1/291,1
Длина основной ВПП
30
Ширина основной ВПП
10
Покрытие основной ВПП
Нетвёрдое (грунт)
Освещение ВПП
Нет
Тип: 
Вертодром
Класс аэродрома: 
Принадлежность: 
ГА
Статус: 
Недействующий
Сайт: 
E-mail аэродрома: 
Страна: 
Россия
Регион: 
Ханты-Мансийский автономный округ - Югра
Город: 
Дополнительная информация: 

Найти трансфер

С помощью этой формы Вы можете найти трансфер из аэропорта 183 км в город, аэропорт или вокзал:

Карта места

Javascript is required to view this map.

Погода в аэропортах:

Авиационная погода в Сургуте

Регион: 
Погода METAR: 
USRR 251830Z 12004MPS 1200 1100W R07/2000N SN SCT013 M33/M36 Q1032 R07/39//42 TEMPO 1000 SN BR RMK OBST OBSC QFE769
Время наблюдения
2021-01-25T18:30:00Z
Температура C
-33.0
Точка росы
-36.0
Направление ветра
120
Скорость ветра (узлы)
8
Метео видимость
0.75
Явления погоды
SN
Условия полета
LIFR
Аэропорт подробнее: 

Авиационная погода в Москва - Домодедово

Регион: 
Погода METAR: 
UUDD 251830Z 16007MPS 8000 -DZ OVC007 00/M01 Q1012 R88/290045 NOSIG
Время наблюдения
2021-01-25T18:30:00Z
Температура C
0.0
Точка росы
-1.0
Направление ветра
160
Скорость ветра (узлы)
14
Метео видимость
4.97
Явления погоды
-DZ
Условия полета
IFR
Аэропорт подробнее: 

Авиационная погода в Миккели

Регион: 
Погода METAR: 
EFMI 251850Z AUTO 13005KT 100V180 9999 -SHRA BKN006 OVC033 01/00 Q1000
Время наблюдения
2021-01-25T18:50:00Z
Температура C
1.0
Точка росы
0.0
Направление ветра
130
Скорость ветра (узлы)
5
Метео видимость
6.21
Явления погоды
-SHRA
Условия полета
IFR

Авиационная погода в Алматы

Регион: 
Погода METAR: 
UAAA 251830Z 18001MPS 2100 BR FU SCT012 BKN050 M07/M09 Q1030 R23R/3///60 R23L/3///45 NOSIG
Время наблюдения
2021-01-25T18:30:00Z
Температура C
-7.0
Точка росы
-9.0
Направление ветра
180
Скорость ветра (узлы)
2
Метео видимость
1.3
Явления погоды
BR FU
Условия полета
IFR
Аэропорт подробнее: